createdAt,value
2022-11-29T00:04:11.765Z,100829.09
2022-11-29T00:09:07.021Z,100821.88
2022-11-29T00:13:58.590Z,100825.84
2022-11-29T00:18:50.196Z,100820.19
2022-11-29T00:23:41.778Z,100822.06
2022-11-29T00:28:35.368Z,100789.56
2022-11-29T00:33:28.004Z,100786.03
2022-11-29T00:38:19.613Z,100777.22
2022-11-29T00:43:11.171Z,100824.75
2022-11-29T00:48:02.680Z,100824.94
2022-11-29T00:52:54.217Z,100821.69
2022-11-29T00:57:45.836Z,100789.53
2022-11-29T01:02:37.620Z,100831.16
2022-11-29T01:07:29.357Z,100829.31
2022-11-29T01:12:20.911Z,100828.69
2022-11-29T01:17:12.521Z,100828.53
2022-11-29T01:22:04.119Z,100808.16
2022-11-29T01:26:55.688Z,100830.81
2022-11-29T01:31:47.225Z,100833.13
2022-11-29T01:36:38.755Z,100807.72
2022-11-29T01:41:32.402Z,100836.41
2022-11-29T01:46:24.715Z,100840.53
2022-11-29T01:51:16.497Z,100846.72
2022-11-29T01:56:08.230Z,100826.31
2022-11-29T02:01:01.142Z,100851.19
2022-11-29T02:05:53.889Z,100861.41
2022-11-29T02:11:08.335Z,100815.13
2022-11-29T02:16:37.860Z,100858.03
2022-11-29T02:22:02.880Z,100866.38
2022-11-29T02:27:23.080Z,100861.44
2022-11-29T02:32:20.720Z,100871.66
2022-11-29T02:37:47.748Z,100866.22
2022-11-29T02:43:13.863Z,100841.66
2022-11-29T02:48:26.797Z,100876.34
2022-11-29T02:53:27.931Z,100869.13
2022-11-29T02:58:31.601Z,100815.94
2022-11-29T03:03:32.575Z,100867.22
2022-11-29T03:08:35.330Z,100882.78
2022-11-29T03:13:48.851Z,100880.53
2022-11-29T03:19:05.065Z,100879.78
2022-11-29T03:24:04.788Z,100883.25
2022-11-29T03:29:07.059Z,100895.72
2022-11-29T03:34:04.486Z,100903.78
2022-11-29T03:39:00.313Z,100908.63
2022-11-29T03:43:57.292Z,100906.25
2022-11-29T03:48:55.496Z,100846.44
2022-11-29T03:54:02.469Z,100900.50
2022-11-29T03:59:15.317Z,100918.06
2022-11-29T04:04:15.982Z,100924.34
2022-11-29T04:09:19.826Z,100921.72
2022-11-29T04:14:56.490Z,100922.56
2022-11-29T04:20:18.975Z,100926.00
2022-11-29T04:25:32.484Z,100939.28
2022-11-29T04:30:36.710Z,100895.00
2022-11-29T04:35:43.146Z,100941.94
2022-11-29T04:40:43.858Z,100948.22
2022-11-29T04:46:03.161Z,100949.81
2022-11-29T04:51:33.531Z,100888.91
2022-11-29T04:56:30.880Z,100959.69
2022-11-29T05:01:35.574Z,100962.09
2022-11-29T05:06:56.311Z,100968.78
2022-11-29T05:12:01.472Z,100850.22
2022-11-29T05:17:31.529Z,100986.44
2022-11-29T05:22:50.052Z,100971.50
2022-11-29T05:28:05.609Z,100988.06
2022-11-29T05:33:24.542Z,100996.91
2022-11-29T05:39:07.626Z,101010.13
2022-11-29T05:44:17.087Z,101003.91
2022-11-29T05:49:35.040Z,101014.50
2022-11-29T05:54:32.937Z,100951.19
2022-11-29T05:59:30.091Z,100843.19
2022-11-29T06:04:58.704Z,101021.31
2022-11-29T06:10:01.453Z,100991.72
2022-11-29T06:15:12.981Z,101033.00
2022-11-29T06:20:42.008Z,100886.47
2022-11-29T06:25:50.709Z,101053.31
2022-11-29T06:31:01.007Z,101057.00
2022-11-29T06:36:00.639Z,101038.56
2022-11-29T06:40:54.928Z,101046.16
2022-11-29T06:45:59.442Z,101051.34
2022-11-29T06:51:29.144Z,101075.56
2022-11-29T06:56:56.161Z,101075.19
2022-11-29T07:02:20.847Z,100953.22
2022-11-29T07:07:17.917Z,101084.47
2022-11-29T07:12:09.902Z,101019.59
2022-11-29T07:17:14.334Z,101097.38
2022-11-29T07:22:31.042Z,101094.94
2022-11-29T07:27:49.624Z,101103.78
2022-11-29T07:33:14.547Z,101110.66
2022-11-29T07:38:11.953Z,100934.00
2022-11-29T07:43:31.558Z,101124.22
2022-11-29T07:48:23.279Z,101104.53
2022-11-29T07:53:20.106Z,101128.47
2022-11-29T07:58:13.031Z,101133.75
2022-11-29T08:03:04.884Z,101075.75
2022-11-29T08:07:56.708Z,101147.16
2022-11-29T08:12:50.738Z,101159.44
2022-11-29T08:17:42.292Z,101086.63
2022-11-29T08:22:34.039Z,101117.81
2022-11-29T08:27:25.910Z,101018.88
2022-11-29T08:32:17.690Z,101132.25
2022-11-29T08:37:09.302Z,101177.53
2022-11-29T08:42:00.837Z,101178.56
2022-11-29T08:47:15.338Z,101131.69
2022-11-29T08:52:25.721Z,101188.22
2022-11-29T08:57:39.053Z,101193.72
2022-11-29T09:02:28.949Z,101195.53
2022-11-29T09:07:20.607Z,101182.56
2022-11-29T09:12:12.375Z,101162.97
2022-11-29T09:17:04.111Z,101140.16
2022-11-29T09:21:56.302Z,101223.94
2022-11-29T09:26:48.392Z,101156.44
2022-11-29T09:31:40.224Z,101186.66
2022-11-29T09:36:31.892Z,101204.44
2022-11-29T09:41:32.832Z,101238.53
2022-11-29T09:46:42.590Z,101242.63
2022-11-29T09:51:59.221Z,101248.63
2022-11-29T09:56:53.161Z,101254.28
2022-11-29T10:01:51.443Z,101256.16
2022-11-29T10:06:52.059Z,101262.00
2022-11-29T10:11:58.271Z,101260.06
2022-11-29T10:17:01.068Z,101256.00
2022-11-29T10:22:17.722Z,101267.63
2022-11-29T10:27:23.105Z,101252.53
2022-11-29T10:32:15.813Z,101261.06
2022-11-29T10:37:21.141Z,101262.13
2022-11-29T10:42:39.626Z,101268.63
2022-11-29T10:47:32.087Z,101263.72
2022-11-29T10:52:24.173Z,101222.88
2022-11-29T10:57:18.706Z,101274.41
2022-11-29T11:02:21.110Z,101247.38
2022-11-29T11:07:27.919Z,101253.19
2022-11-29T11:12:22.783Z,101266.78
2022-11-29T11:17:22.261Z,101210.97
2022-11-29T11:22:21.847Z,101170.25
2022-11-29T11:27:13.424Z,101256.69
2022-11-29T11:32:14.578Z,101257.78
2022-11-29T11:37:15.338Z,101254.56
2022-11-29T11:42:31.615Z,101201.56
2022-11-29T11:47:27.248Z,101261.25
2022-11-29T11:52:25.742Z,101233.97
2022-11-29T11:57:18.975Z,101184.59
2022-11-29T12:02:38.844Z,101269.34
2022-11-29T12:08:07.182Z,101264.66
2022-11-29T12:12:58.222Z,101188.13
2022-11-29T12:18:00.174Z,101276.13
2022-11-29T12:23:13.465Z,101282.50
2022-11-29T12:28:18.586Z,101216.34
2022-11-29T12:33:50.676Z,101296.22
2022-11-29T12:38:53.555Z,101307.03
2022-11-29T12:44:03.950Z,101307.03
2022-11-29T12:49:05.280Z,101316.03
2022-11-29T12:54:06.094Z,101313.41
2022-11-29T12:59:00.391Z,101322.66
2022-11-29T13:04:11.494Z,101326.25
2022-11-29T13:09:47.422Z,101329.31
2022-11-29T13:15:03.439Z,101336.13
2022-11-29T13:20:13.564Z,101333.88
2022-11-29T13:25:20.589Z,101338.66
2022-11-29T13:30:15.733Z,101305.97
2022-11-29T13:35:34.095Z,101343.03
2022-11-29T13:40:38.140Z,101348.03
2022-11-29T13:45:49.874Z,101350.84
2022-11-29T13:50:45.776Z,101300.88
2022-11-29T13:55:45.089Z,101296.75
2022-11-29T14:00:42.533Z,101346.06
2022-11-29T14:05:39.259Z,101289.22
2022-11-29T14:10:32.429Z,101350.34
2022-11-29T14:15:33.310Z,101351.34
2022-11-29T14:20:30.406Z,101355.59
2022-11-29T14:30:46.984Z,101363.72
2022-11-29T14:35:48.661Z,101364.06
2022-11-29T14:40:40.117Z,101364.25
2022-11-29T14:45:34.041Z,101372.94
2022-11-29T14:50:40.509Z,101380.97
2022-11-29T14:55:36.444Z,101384.34
2022-11-29T15:00:32.592Z,101296.66
2022-11-29T15:05:36.895Z,101379.28
2022-11-29T15:10:33.556Z,101351.53
2022-11-29T15:15:36.561Z,101386.88
2022-11-29T15:20:35.077Z,101327.25
2022-11-29T15:25:31.843Z,101399.44
2022-11-29T15:30:35.244Z,101395.81
2022-11-29T15:35:27.561Z,101326.72
2022-11-29T15:40:28.873Z,101375.06
2022-11-29T15:45:31.104Z,101394.09
2022-11-29T15:50:29.294Z,101398.28
2022-11-29T15:55:21.689Z,101417.16
2022-11-29T16:00:20.224Z,101342.44
2022-11-29T16:05:22.694Z,101424.56
2022-11-29T16:10:18.563Z,101374.47
2022-11-29T16:15:28.444Z,101427.91
2022-11-29T16:20:25.508Z,101425.13
2022-11-29T16:25:19.270Z,101436.31
2022-11-29T16:30:22.447Z,101436.94
2022-11-29T16:35:26.451Z,101430.72
2022-11-29T16:40:28.470Z,101369.59
2022-11-29T16:45:40.990Z,101407.50
2022-11-29T16:50:33.223Z,101445.69
2022-11-29T16:55:24.836Z,101444.69
2022-11-29T17:00:24.439Z,101452.34
2022-11-29T17:05:16.003Z,101445.56
2022-11-29T17:10:09.322Z,101415.31
2022-11-29T17:15:00.801Z,101455.28
2022-11-29T17:19:52.868Z,101430.66
2022-11-29T17:24:48.065Z,101437.78
2022-11-29T17:29:40.013Z,101448.81
2022-11-29T17:34:31.637Z,101452.47
2022-11-29T17:39:23.217Z,101412.59
2022-11-29T17:44:14.881Z,101446.66
2022-11-29T17:49:08.693Z,101459.88
2022-11-29T17:54:02.801Z,101452.56
2022-11-29T17:58:56.968Z,101473.66
2022-11-29T18:03:51.719Z,101451.06
2022-11-29T18:08:48.563Z,101466.84
2022-11-29T18:13:40.756Z,101341.97
2022-11-29T18:18:36.025Z,101414.09
2022-11-29T18:23:29.363Z,101471.47
2022-11-29T18:28:20.897Z,101484.94
2022-11-29T18:33:12.461Z,101320.25
2022-11-29T18:38:15.195Z,101425.13
2022-11-29T18:43:08.581Z,101407.72
2022-11-29T18:48:00.085Z,101492.91
2022-11-29T18:52:54.104Z,101490.63
2022-11-29T18:57:48.829Z,101482.31
2022-11-29T19:02:40.787Z,101498.78
2022-11-29T19:07:33.676Z,101420.09
2022-11-29T19:12:25.622Z,101437.03
2022-11-29T19:17:17.773Z,101451.53
2022-11-29T19:22:09.370Z,101362.03
2022-11-29T19:27:03.065Z,101510.53
2022-11-29T19:31:54.863Z,101506.78
2022-11-29T19:36:46.461Z,101518.34
2022-11-29T19:41:38.161Z,101489.03
2022-11-29T19:46:32.631Z,101515.75
2022-11-29T19:51:25.485Z,101489.34
2022-11-29T19:56:17.475Z,101516.25
2022-11-29T20:01:10.658Z,101525.06
2022-11-29T20:06:02.643Z,101483.16
2022-11-29T20:10:54.608Z,101525.03
2022-11-29T20:15:46.668Z,101443.41
2022-11-29T20:20:38.405Z,101540.50
2022-11-29T20:25:30.601Z,101532.66
2022-11-29T20:30:22.477Z,101485.06
2022-11-29T20:35:15.878Z,101538.47
2022-11-29T20:40:15.807Z,101541.41
2022-11-29T20:45:09.489Z,101534.50
2022-11-29T20:50:01.214Z,101542.81
2022-11-29T20:54:52.745Z,101523.59
2022-11-29T20:59:44.764Z,101463.66
2022-11-29T21:04:36.515Z,101552.09
2022-11-29T21:09:28.615Z,101551.28
2022-11-29T21:14:20.489Z,101549.97
2022-11-29T21:19:19.655Z,101473.84
2022-11-29T21:24:23.250Z,101548.75
2022-11-29T21:29:20.138Z,101549.28
2022-11-29T21:34:11.959Z,101498.63
2022-11-29T21:39:05.820Z,101527.75
2022-11-29T21:44:06.529Z,101504.31
2022-11-29T21:48:59.429Z,101560.25
2022-11-29T21:53:50.918Z,101446.09
2022-11-29T21:58:42.613Z,101523.16
2022-11-29T22:03:34.589Z,101574.69
2022-11-29T22:08:26.111Z,101549.59
2022-11-29T22:13:17.686Z,101537.03
2022-11-29T22:18:10.299Z,101571.75
2022-11-29T22:23:01.790Z,101567.19
2022-11-29T22:27:53.455Z,101572.41
2022-11-29T22:32:44.961Z,101515.34
2022-11-29T22:37:36.901Z,101474.47
2022-11-29T22:42:28.410Z,101560.81
2022-11-29T22:47:19.992Z,101564.22
2022-11-29T22:52:11.568Z,101509.16
2022-11-29T22:57:03.183Z,101556.41
2022-11-29T23:01:54.792Z,101531.66
2022-11-29T23:06:46.878Z,101539.31
2022-11-29T23:11:38.630Z,101574.69
2022-11-29T23:16:30.880Z,101575.16
2022-11-29T23:21:23.842Z,101465.00
2022-11-29T23:26:22.087Z,101518.75
2022-11-29T23:31:13.776Z,101589.47
2022-11-29T23:36:07.880Z,101592.00
2022-11-29T23:40:59.614Z,101492.81
2022-11-29T23:45:51.175Z,101583.88
2022-11-29T23:50:43.529Z,101583.13
2022-11-29T23:55:35.138Z,101591.84
